sensor_id;sensor_type;location;lat;lon;timestamp;P1;durP1;ratioP1;P2;durP2;ratioP2
15486;SDS011;7845;53.698;10.078;2022-09-23T00:00:44;3.20;;;1.20;;
15486;SDS011;7845;53.698;10.078;2022-09-23T00:03:11;4.27;;;1.80;;
15486;SDS011;7845;53.698;10.078;2022-09-23T00:05:37;4.80;;;1.30;;
15486;SDS011;7845;53.698;10.078;2022-09-23T00:08:03;3.20;;;1.20;;
15486;SDS011;7845;53.698;10.078;2022-09-23T00:10:29;5.40;;;1.30;;
15486;SDS011;7845;53.698;10.078;2022-09-23T00:12:55;4.40;;;1.37;;
15486;SDS011;7845;53.698;10.078;2022-09-23T00:15:22;3.03;;;1.10;;
15486;SDS011;7845;53.698;10.078;2022-09-23T00:17:54;3.97;;;1.60;;
15486;SDS011;7845;53.698;10.078;2022-09-23T00:20:19;3.60;;;1.37;;
15486;SDS011;7845;53.698;10.078;2022-09-23T00:22:46;4.37;;;1.60;;
15486;SDS011;7845;53.698;10.078;2022-09-23T00:25:11;3.80;;;1.40;;
15486;SDS011;7845;53.698;10.078;2022-09-23T00:27:37;3.33;;;1.30;;
15486;SDS011;7845;53.698;10.078;2022-09-23T00:30:04;4.63;;;1.60;;
15486;SDS011;7845;53.698;10.078;2022-09-23T00:32:31;3.80;;;1.20;;
15486;SDS011;7845;53.698;10.078;2022-09-23T00:34:57;3.50;;;1.30;;
15486;SDS011;7845;53.698;10.078;2022-09-23T00:37:22;4.60;;;1.40;;
15486;SDS011;7845;53.698;10.078;2022-09-23T00:39:48;4.90;;;2.03;;
15486;SDS011;7845;53.698;10.078;2022-09-23T00:42:14;3.30;;;1.40;;
15486;SDS011;7845;53.698;10.078;2022-09-23T00:47:34;3.30;;;1.40;;
15486;SDS011;7845;53.698;10.078;2022-09-23T00:53:04;3.63;;;1.47;;
15486;SDS011;7845;53.698;10.078;2022-09-23T00:55:32;4.60;;;1.50;;
15486;SDS011;7845;53.698;10.078;2022-09-23T00:58:02;3.87;;;1.63;;
15486;SDS011;7845;53.698;10.078;2022-09-23T01:00:30;5.00;;;1.57;;
15486;SDS011;7845;53.698;10.078;2022-09-23T01:02:55;3.50;;;1.40;;
15486;SDS011;7845;53.698;10.078;2022-09-23T01:05:21;3.20;;;1.20;;
15486;SDS011;7845;53.698;10.078;2022-09-23T01:07:48;3.53;;;1.07;;
15486;SDS011;7845;53.698;10.078;2022-09-23T01:10:14;3.30;;;1.10;;
15486;SDS011;7845;53.698;10.078;2022-09-23T01:12:56;3.77;;;1.27;;
15486;SDS011;7845;53.698;10.078;2022-09-23T01:15:30;5.20;;;1.30;;
15486;SDS011;7845;53.698;10.078;2022-09-23T01:20:56;3.60;;;1.40;;
15486;SDS011;7845;53.698;10.078;2022-09-23T01:26:44;3.67;;;1.50;;
15486;SDS011;7845;53.698;10.078;2022-09-23T01:32:20;3.17;;;1.30;;
15486;SDS011;7845;53.698;10.078;2022-09-23T01:35:03;3.50;;;1.20;;
15486;SDS011;7845;53.698;10.078;2022-09-23T01:37:43;3.57;;;1.10;;
15486;SDS011;7845;53.698;10.078;2022-09-23T01:40:16;4.33;;;1.60;;
15486;SDS011;7845;53.698;10.078;2022-09-23T01:45:42;3.63;;;1.30;;
15486;SDS011;7845;53.698;10.078;2022-09-23T01:48:28;4.20;;;1.50;;
15486;SDS011;7845;53.698;10.078;2022-09-23T01:51:13;3.70;;;1.40;;
15486;SDS011;7845;53.698;10.078;2022-09-23T01:53:48;4.23;;;1.60;;
15486;SDS011;7845;53.698;10.078;2022-09-23T01:56:21;4.27;;;1.60;;
15486;SDS011;7845;53.698;10.078;2022-09-23T01:58:56;4.10;;;1.40;;
15486;SDS011;7845;53.698;10.078;2022-09-23T02:01:29;3.77;;;1.40;;
15486;SDS011;7845;53.698;10.078;2022-09-23T02:04:08;3.50;;;1.27;;
15486;SDS011;7845;53.698;10.078;2022-09-23T02:06:49;3.60;;;1.40;;
15486;SDS011;7845;53.698;10.078;2022-09-23T02:09:24;4.40;;;1.43;;
15486;SDS011;7845;53.698;10.078;2022-09-23T02:12:00;3.30;;;1.20;;
15486;SDS011;7845;53.698;10.078;2022-09-23T02:14:31;3.97;;;1.63;;
15486;SDS011;7845;53.698;10.078;2022-09-23T02:17:04;4.77;;;1.70;;
15486;SDS011;7845;53.698;10.078;2022-09-23T02:19:36;3.50;;;1.40;;
15486;SDS011;7845;53.698;10.078;2022-09-23T02:22:22;3.80;;;1.33;;
15486;SDS011;7845;53.698;10.078;2022-09-23T02:24:53;4.20;;;1.97;;
15486;SDS011;7845;53.698;10.078;2022-09-23T02:27:41;4.17;;;1.40;;
15486;SDS011;7845;53.698;10.078;2022-09-23T02:30:22;3.00;;;1.00;;
15486;SDS011;7845;53.698;10.078;2022-09-23T02:32:53;3.40;;;1.20;;
15486;SDS011;7845;53.698;10.078;2022-09-23T02:35:36;3.40;;;1.50;;
15486;SDS011;7845;53.698;10.078;2022-09-23T02:38:19;3.30;;;1.10;;
15486;SDS011;7845;53.698;10.078;2022-09-23T02:46:17;5.23;;;1.70;;
15486;SDS011;7845;53.698;10.078;2022-09-23T02:48:48;3.40;;;1.27;;
15486;SDS011;7845;53.698;10.078;2022-09-23T02:51:17;4.67;;;1.50;;
15486;SDS011;7845;53.698;10.078;2022-09-23T02:53:43;4.30;;;1.63;;
15486;SDS011;7845;53.698;10.078;2022-09-23T02:56:17;4.20;;;1.27;;
15486;SDS011;7845;53.698;10.078;2022-09-23T02:58:47;3.93;;;1.30;;
15486;SDS011;7845;53.698;10.078;2022-09-23T03:01:21;3.63;;;1.40;;
15486;SDS011;7845;53.698;10.078;2022-09-23T03:12:51;3.70;;;1.37;;
15486;SDS011;7845;53.698;10.078;2022-09-23T03:18:20;3.60;;;1.30;;
15486;SDS011;7845;53.698;10.078;2022-09-23T03:20:56;4.03;;;1.30;;
15486;SDS011;7845;53.698;10.078;2022-09-23T03:23:30;3.40;;;1.50;;
15486;SDS011;7845;53.698;10.078;2022-09-23T03:26:07;3.63;;;1.20;;
15486;SDS011;7845;53.698;10.078;2022-09-23T03:28:39;3.97;;;1.50;;
15486;SDS011;7845;53.698;10.078;2022-09-23T03:31:08;3.90;;;1.40;;
15486;SDS011;7845;53.698;10.078;2022-09-23T03:33:39;3.80;;;1.40;;
15486;SDS011;7845;53.698;10.078;2022-09-23T03:36:10;3.93;;;1.50;;
15486;SDS011;7845;53.698;10.078;2022-09-23T03:39:11;4.70;;;1.70;;
15486;SDS011;7845;53.698;10.078;2022-09-23T03:41:41;3.40;;;1.27;;
15486;SDS011;7845;53.698;10.078;2022-09-23T03:44:12;4.73;;;1.40;;
15486;SDS011;7845;53.698;10.078;2022-09-23T03:46:38;3.97;;;1.40;;
15486;SDS011;7845;53.698;10.078;2022-09-23T03:49:18;3.60;;;1.33;;
15486;SDS011;7845;53.698;10.078;2022-09-23T03:51:52;4.00;;;1.50;;
15486;SDS011;7845;53.698;10.078;2022-09-23T03:54:18;4.13;;;1.50;;
15486;SDS011;7845;53.698;10.078;2022-09-23T03:56:44;3.87;;;1.50;;
15486;SDS011;7845;53.698;10.078;2022-09-23T03:59:11;4.03;;;1.60;;
15486;SDS011;7845;53.698;10.078;2022-09-23T04:01:39;3.33;;;1.13;;
15486;SDS011;7845;53.698;10.078;2022-09-23T04:04:06;3.33;;;1.43;;
15486;SDS011;7845;53.698;10.078;2022-09-23T04:06:32;3.80;;;1.30;;
15486;SDS011;7845;53.698;10.078;2022-09-23T04:08:57;3.50;;;1.53;;
15486;SDS011;7845;53.698;10.078;2022-09-23T04:11:23;3.50;;;1.30;;
15486;SDS011;7845;53.698;10.078;2022-09-23T04:13:48;3.20;;;1.20;;
15486;SDS011;7845;53.698;10.078;2022-09-23T04:16:13;3.97;;;1.60;;
15486;SDS011;7845;53.698;10.078;2022-09-23T04:18:39;3.80;;;1.40;;
15486;SDS011;7845;53.698;10.078;2022-09-23T04:21:05;3.27;;;1.23;;
15486;SDS011;7845;53.698;10.078;2022-09-23T04:23:30;4.03;;;1.27;;
15486;SDS011;7845;53.698;10.078;2022-09-23T04:25:55;4.27;;;1.50;;
15486;SDS011;7845;53.698;10.078;2022-09-23T04:28:21;4.97;;;1.40;;
15486;SDS011;7845;53.698;10.078;2022-09-23T04:30:47;3.20;;;1.27;;
15486;SDS011;7845;53.698;10.078;2022-09-23T04:33:14;3.60;;;1.50;;
15486;SDS011;7845;53.698;10.078;2022-09-23T04:35:41;3.63;;;1.53;;
15486;SDS011;7845;53.698;10.078;2022-09-23T04:38:07;3.80;;;1.60;;
15486;SDS011;7845;53.698;10.078;2022-09-23T04:40:35;3.97;;;1.70;;
15486;SDS011;7845;53.698;10.078;2022-09-23T04:43:02;3.73;;;1.30;;
15486;SDS011;7845;53.698;10.078;2022-09-23T04:45:27;3.73;;;1.50;;
15486;SDS011;7845;53.698;10.078;2022-09-23T04:47:54;4.00;;;1.57;;
15486;SDS011;7845;53.698;10.078;2022-09-23T04:50:20;5.27;;;1.67;;
15486;SDS011;7845;53.698;10.078;2022-09-23T04:52:45;3.33;;;1.20;;
15486;SDS011;7845;53.698;10.078;2022-09-23T04:55:10;3.57;;;1.53;;
15486;SDS011;7845;53.698;10.078;2022-09-23T04:57:36;3.53;;;1.27;;
15486;SDS011;7845;53.698;10.078;2022-09-23T05:00:01;4.43;;;1.47;;
15486;SDS011;7845;53.698;10.078;2022-09-23T05:02:28;3.60;;;1.43;;
15486;SDS011;7845;53.698;10.078;2022-09-23T05:04:54;4.80;;;1.90;;
15486;SDS011;7845;53.698;10.078;2022-09-23T05:07:20;3.70;;;1.47;;
15486;SDS011;7845;53.698;10.078;2022-09-23T05:09:45;4.27;;;1.70;;
15486;SDS011;7845;53.698;10.078;2022-09-23T05:12:11;3.83;;;1.40;;
15486;SDS011;7845;53.698;10.078;2022-09-23T05:14:36;3.97;;;1.40;;
15486;SDS011;7845;53.698;10.078;2022-09-23T05:17:04;3.87;;;1.47;;
15486;SDS011;7845;53.698;10.078;2022-09-23T05:19:30;4.23;;;1.70;;
15486;SDS011;7845;53.698;10.078;2022-09-23T05:21:56;4.03;;;1.33;;
15486;SDS011;7845;53.698;10.078;2022-09-23T05:24:21;3.60;;;1.30;;
15486;SDS011;7845;53.698;10.078;2022-09-23T05:26:49;3.60;;;1.50;;
15486;SDS011;7845;53.698;10.078;2022-09-23T05:29:15;4.00;;;1.40;;
15486;SDS011;7845;53.698;10.078;2022-09-23T05:31:41;3.23;;;1.37;;
15486;SDS011;7845;53.698;10.078;2022-09-23T05:34:07;4.20;;;1.80;;
15486;SDS011;7845;53.698;10.078;2022-09-23T05:36:34;4.00;;;1.40;;
15486;SDS011;7845;53.698;10.078;2022-09-23T05:39:00;3.63;;;1.47;;
15486;SDS011;7845;53.698;10.078;2022-09-23T05:41:26;4.27;;;1.40;;
15486;SDS011;7845;53.698;10.078;2022-09-23T05:43:52;4.13;;;1.73;;
15486;SDS011;7845;53.698;10.078;2022-09-23T05:46:20;3.37;;;1.20;;
15486;SDS011;7845;53.698;10.078;2022-09-23T05:48:47;5.50;;;1.80;;
15486;SDS011;7845;53.698;10.078;2022-09-23T05:51:23;4.50;;;1.83;;
15486;SDS011;7845;53.698;10.078;2022-09-23T05:53:49;3.60;;;1.40;;
15486;SDS011;7845;53.698;10.078;2022-09-23T05:56:19;4.37;;;1.90;;
15486;SDS011;7845;53.698;10.078;2022-09-23T05:58:50;4.90;;;1.30;;
15486;SDS011;7845;53.698;10.078;2022-09-23T06:01:18;3.70;;;1.50;;
15486;SDS011;7845;53.698;10.078;2022-09-23T06:03:46;3.70;;;1.40;;
15486;SDS011;7845;53.698;10.078;2022-09-23T06:06:28;3.40;;;1.60;;
15486;SDS011;7845;53.698;10.078;2022-09-23T06:08:56;3.60;;;1.50;;
15486;SDS011;7845;53.698;10.078;2022-09-23T06:11:30;5.97;;;1.70;;
15486;SDS011;7845;53.698;10.078;2022-09-23T06:13:57;5.23;;;1.90;;
15486;SDS011;7845;53.698;10.078;2022-09-23T06:16:44;3.97;;;1.70;;
15486;SDS011;7845;53.698;10.078;2022-09-23T06:19:09;3.77;;;1.57;;
15486;SDS011;7845;53.698;10.078;2022-09-23T06:21:36;3.80;;;1.57;;
15486;SDS011;7845;53.698;10.078;2022-09-23T06:24:03;4.30;;;1.60;;
15486;SDS011;7845;53.698;10.078;2022-09-23T06:26:29;4.20;;;1.63;;
15486;SDS011;7845;53.698;10.078;2022-09-23T06:28:57;4.53;;;2.10;;
15486;SDS011;7845;53.698;10.078;2022-09-23T06:31:24;5.57;;;1.60;;
15486;SDS011;7845;53.698;10.078;2022-09-23T06:33:50;4.20;;;1.80;;
15486;SDS011;7845;53.698;10.078;2022-09-23T06:36:15;5.43;;;1.80;;
15486;SDS011;7845;53.698;10.078;2022-09-23T06:38:41;5.23;;;1.60;;
15486;SDS011;7845;53.698;10.078;2022-09-23T06:41:13;6.97;;;1.93;;
15486;SDS011;7845;53.698;10.078;2022-09-23T06:43:39;4.13;;;1.70;;
15486;SDS011;7845;53.698;10.078;2022-09-23T06:46:07;3.40;;;1.47;;
15486;SDS011;7845;53.698;10.078;2022-09-23T06:48:33;4.60;;;1.67;;
15486;SDS011;7845;53.698;10.078;2022-09-23T06:51:01;4.80;;;1.80;;
15486;SDS011;7845;53.698;10.078;2022-09-23T06:53:29;6.33;;;1.83;;
15486;SDS011;7845;53.698;10.078;2022-09-23T06:56:00;4.17;;;1.90;;
15486;SDS011;7845;53.698;10.078;2022-09-23T06:58:28;6.13;;;1.90;;
15486;SDS011;7845;53.698;10.078;2022-09-23T07:00:59;5.20;;;2.10;;
15486;SDS011;7845;53.698;10.078;2022-09-23T07:03:29;4.10;;;2.00;;
15486;SDS011;7845;53.698;10.078;2022-09-23T07:05:56;3.93;;;1.57;;
15486;SDS011;7845;53.698;10.078;2022-09-23T07:08:22;5.30;;;1.93;;
15486;SDS011;7845;53.698;10.078;2022-09-23T07:10:52;4.87;;;2.00;;
15486;SDS011;7845;53.698;10.078;2022-09-23T07:13:19;4.97;;;1.90;;
15486;SDS011;7845;53.698;10.078;2022-09-23T07:15:51;4.83;;;1.87;;
15486;SDS011;7845;53.698;10.078;2022-09-23T07:18:18;4.87;;;1.90;;
15486;SDS011;7845;53.698;10.078;2022-09-23T07:20:45;4.10;;;2.00;;
15486;SDS011;7845;53.698;10.078;2022-09-23T07:23:12;4.03;;;1.70;;
15486;SDS011;7845;53.698;10.078;2022-09-23T07:25:38;4.10;;;1.70;;
15486;SDS011;7845;53.698;10.078;2022-09-23T07:28:04;5.00;;;2.10;;
15486;SDS011;7845;53.698;10.078;2022-09-23T07:30:31;6.90;;;2.37;;
15486;SDS011;7845;53.698;10.078;2022-09-23T07:33:00;3.90;;;1.83;;
15486;SDS011;7845;53.698;10.078;2022-09-23T07:35:26;3.80;;;1.70;;
15486;SDS011;7845;53.698;10.078;2022-09-23T07:37:52;3.73;;;1.60;;
15486;SDS011;7845;53.698;10.078;2022-09-23T07:40:18;3.90;;;1.60;;
15486;SDS011;7845;53.698;10.078;2022-09-23T07:42:43;4.80;;;2.20;;
15486;SDS011;7845;53.698;10.078;2022-09-23T07:45:09;4.57;;;1.80;;
15486;SDS011;7845;53.698;10.078;2022-09-23T07:47:34;4.50;;;1.87;;
15486;SDS011;7845;53.698;10.078;2022-09-23T07:50:00;3.73;;;1.50;;
15486;SDS011;7845;53.698;10.078;2022-09-23T07:52:26;4.00;;;1.90;;
15486;SDS011;7845;53.698;10.078;2022-09-23T07:54:52;5.47;;;1.97;;
15486;SDS011;7845;53.698;10.078;2022-09-23T07:57:18;4.10;;;2.17;;
15486;SDS011;7845;53.698;10.078;2022-09-23T07:59:43;4.50;;;2.03;;
15486;SDS011;7845;53.698;10.078;2022-09-23T08:02:10;4.53;;;1.80;;
15486;SDS011;7845;53.698;10.078;2022-09-23T08:04:36;4.60;;;1.70;;
15486;SDS011;7845;53.698;10.078;2022-09-23T08:07:03;4.90;;;2.10;;
15486;SDS011;7845;53.698;10.078;2022-09-23T08:09:31;4.80;;;1.80;;
15486;SDS011;7845;53.698;10.078;2022-09-23T08:12:00;4.23;;;1.90;;
15486;SDS011;7845;53.698;10.078;2022-09-23T08:14:25;4.10;;;1.63;;
15486;SDS011;7845;53.698;10.078;2022-09-23T08:16:51;4.40;;;2.17;;
15486;SDS011;7845;53.698;10.078;2022-09-23T08:19:18;3.80;;;1.60;;
15486;SDS011;7845;53.698;10.078;2022-09-23T08:21:44;4.80;;;1.50;;
15486;SDS011;7845;53.698;10.078;2022-09-23T08:24:14;4.10;;;1.50;;
15486;SDS011;7845;53.698;10.078;2022-09-23T08:26:43;4.10;;;1.73;;
15486;SDS011;7845;53.698;10.078;2022-09-23T08:29:13;3.90;;;1.73;;
15486;SDS011;7845;53.698;10.078;2022-09-23T08:31:40;3.90;;;1.50;;
15486;SDS011;7845;53.698;10.078;2022-09-23T08:34:05;4.43;;;1.70;;
15486;SDS011;7845;53.698;10.078;2022-09-23T08:36:32;5.50;;;1.80;;
15486;SDS011;7845;53.698;10.078;2022-09-23T08:38:58;4.83;;;1.90;;
15486;SDS011;7845;53.698;10.078;2022-09-23T08:43:57;5.17;;;2.00;;
15486;SDS011;7845;53.698;10.078;2022-09-23T08:46:31;7.53;;;2.30;;
15486;SDS011;7845;53.698;10.078;2022-09-23T08:49:03;5.80;;;2.30;;
15486;SDS011;7845;53.698;10.078;2022-09-23T08:51:41;4.17;;;2.03;;
15486;SDS011;7845;53.698;10.078;2022-09-23T08:54:10;4.20;;;1.87;;
15486;SDS011;7845;53.698;10.078;2022-09-23T08:56:38;4.10;;;1.50;;
15486;SDS011;7845;53.698;10.078;2022-09-23T09:01:44;5.67;;;1.87;;
15486;SDS011;7845;53.698;10.078;2022-09-23T09:04:14;4.70;;;1.83;;
15486;SDS011;7845;53.698;10.078;2022-09-23T09:12:15;5.10;;;1.50;;
15486;SDS011;7845;53.698;10.078;2022-09-23T09:14:44;4.10;;;2.03;;
15486;SDS011;7845;53.698;10.078;2022-09-23T09:25:18;5.40;;;1.80;;
15486;SDS011;7845;53.698;10.078;2022-09-23T09:28:13;4.50;;;1.87;;
15486;SDS011;7845;53.698;10.078;2022-09-23T09:30:44;5.10;;;1.97;;
15486;SDS011;7845;53.698;10.078;2022-09-23T09:33:15;4.13;;;2.00;;
15486;SDS011;7845;53.698;10.078;2022-09-23T09:38:35;4.70;;;1.60;;
15486;SDS011;7845;53.698;10.078;2022-09-23T09:41:07;4.23;;;1.37;;
15486;SDS011;7845;53.698;10.078;2022-09-23T09:43:36;4.50;;;1.97;;
15486;SDS011;7845;53.698;10.078;2022-09-23T09:51:21;5.40;;;1.97;;
15486;SDS011;7845;53.698;10.078;2022-09-23T09:53:48;4.23;;;1.83;;
15486;SDS011;7845;53.698;10.078;2022-09-23T09:56:32;5.83;;;1.90;;
15486;SDS011;7845;53.698;10.078;2022-09-23T09:59:00;6.17;;;2.17;;
15486;SDS011;7845;53.698;10.078;2022-09-23T10:01:35;5.33;;;2.10;;
15486;SDS011;7845;53.698;10.078;2022-09-23T10:04:02;4.40;;;1.57;;
15486;SDS011;7845;53.698;10.078;2022-09-23T10:07:02;4.77;;;2.27;;
15486;SDS011;7845;53.698;10.078;2022-09-23T10:09:38;5.10;;;1.90;;
15486;SDS011;7845;53.698;10.078;2022-09-23T10:12:13;5.53;;;1.90;;
15486;SDS011;7845;53.698;10.078;2022-09-23T10:14:47;5.30;;;1.97;;
15486;SDS011;7845;53.698;10.078;2022-09-23T10:17:19;4.60;;;1.60;;
15486;SDS011;7845;53.698;10.078;2022-09-23T10:19:54;3.93;;;1.40;;
15486;SDS011;7845;53.698;10.078;2022-09-23T10:22:25;5.47;;;2.00;;
15486;SDS011;7845;53.698;10.078;2022-09-23T10:24:58;5.33;;;1.80;;
15486;SDS011;7845;53.698;10.078;2022-09-23T10:27:32;4.47;;;1.77;;
15486;SDS011;7845;53.698;10.078;2022-09-23T10:30:04;3.70;;;1.30;;
15486;SDS011;7845;53.698;10.078;2022-09-23T10:32:46;4.23;;;1.40;;
15486;SDS011;7845;53.698;10.078;2022-09-23T10:35:14;4.77;;;2.00;;
15486;SDS011;7845;53.698;10.078;2022-09-23T10:37:53;5.63;;;1.60;;
15486;SDS011;7845;53.698;10.078;2022-09-23T10:40:37;4.00;;;1.57;;
15486;SDS011;7845;53.698;10.078;2022-09-23T10:49:40;4.87;;;1.77;;
15486;SDS011;7845;53.698;10.078;2022-09-23T10:55:34;4.30;;;1.50;;
15486;SDS011;7845;53.698;10.078;2022-09-23T11:01:01;4.37;;;1.60;;
15486;SDS011;7845;53.698;10.078;2022-09-23T11:03:51;6.67;;;1.80;;
15486;SDS011;7845;53.698;10.078;2022-09-23T11:09:41;4.67;;;1.80;;
15486;SDS011;7845;53.698;10.078;2022-09-23T11:15:07;3.87;;;1.40;;
15486;SDS011;7845;53.698;10.078;2022-09-23T11:21:17;5.00;;;1.40;;
15486;SDS011;7845;53.698;10.078;2022-09-23T11:32:35;3.90;;;1.50;;
15486;SDS011;7845;53.698;10.078;2022-09-23T11:35:10;4.20;;;1.60;;
15486;SDS011;7845;53.698;10.078;2022-09-23T11:41:24;4.00;;;1.30;;
15486;SDS011;7845;53.698;10.078;2022-09-23T11:46:58;4.17;;;1.50;;
15486;SDS011;7845;53.698;10.078;2022-09-23T11:49:38;3.70;;;1.20;;
15486;SDS011;7845;53.698;10.078;2022-09-23T11:52:11;4.80;;;1.53;;
15486;SDS011;7845;53.698;10.078;2022-09-23T11:54:51;4.07;;;1.67;;
15486;SDS011;7845;53.698;10.078;2022-09-23T11:57:23;5.80;;;1.50;;
15486;SDS011;7845;53.698;10.078;2022-09-23T12:00:04;3.50;;;1.10;;
15486;SDS011;7845;53.698;10.078;2022-09-23T12:02:41;7.50;;;1.43;;
15486;SDS011;7845;53.698;10.078;2022-09-23T12:05:24;4.20;;;1.53;;
15486;SDS011;7845;53.698;10.078;2022-09-23T12:10:39;3.30;;;1.17;;
15486;SDS011;7845;53.698;10.078;2022-09-23T12:13:42;5.90;;;1.50;;
15486;SDS011;7845;53.698;10.078;2022-09-23T12:24:58;3.60;;;1.30;;
15486;SDS011;7845;53.698;10.078;2022-09-23T12:27:54;4.90;;;1.47;;
15486;SDS011;7845;53.698;10.078;2022-09-23T12:30:28;3.93;;;1.17;;
15486;SDS011;7845;53.698;10.078;2022-09-23T12:33:13;3.77;;;1.17;;
15486;SDS011;7845;53.698;10.078;2022-09-23T12:35:52;3.90;;;1.30;;
15486;SDS011;7845;53.698;10.078;2022-09-23T12:38:20;3.60;;;1.20;;
15486;SDS011;7845;53.698;10.078;2022-09-23T12:40:49;3.63;;;1.30;;
15486;SDS011;7845;53.698;10.078;2022-09-23T12:43:26;3.80;;;1.23;;
15486;SDS011;7845;53.698;10.078;2022-09-23T12:45:54;3.80;;;1.37;;
15486;SDS011;7845;53.698;10.078;2022-09-23T12:48:44;4.33;;;1.50;;
15486;SDS011;7845;53.698;10.078;2022-09-23T12:51:13;4.30;;;1.40;;
15486;SDS011;7845;53.698;10.078;2022-09-23T12:53:49;3.67;;;1.40;;
15486;SDS011;7845;53.698;10.078;2022-09-23T12:56:18;4.03;;;1.33;;
15486;SDS011;7845;53.698;10.078;2022-09-23T13:01:17;4.60;;;1.30;;
15486;SDS011;7845;53.698;10.078;2022-09-23T13:03:45;4.03;;;1.20;;
15486;SDS011;7845;53.698;10.078;2022-09-23T13:06:33;3.37;;;1.13;;
15486;SDS011;7845;53.698;10.078;2022-09-23T13:09:16;4.47;;;1.50;;
15486;SDS011;7845;53.698;10.078;2022-09-23T13:11:46;3.60;;;1.20;;
15486;SDS011;7845;53.698;10.078;2022-09-23T13:14:14;4.80;;;1.20;;
15486;SDS011;7845;53.698;10.078;2022-09-23T13:16:44;5.43;;;1.27;;
15486;SDS011;7845;53.698;10.078;2022-09-23T13:22:00;3.70;;;1.30;;
15486;SDS011;7845;53.698;10.078;2022-09-23T13:27:09;5.00;;;1.40;;
15486;SDS011;7845;53.698;10.078;2022-09-23T13:29:40;3.50;;;1.10;;
15486;SDS011;7845;53.698;10.078;2022-09-23T13:32:13;3.20;;;1.23;;
15486;SDS011;7845;53.698;10.078;2022-09-23T13:34:43;3.53;;;1.23;;
15486;SDS011;7845;53.698;10.078;2022-09-23T13:37:18;3.77;;;1.30;;
15486;SDS011;7845;53.698;10.078;2022-09-23T13:39:45;5.10;;;1.10;;
15486;SDS011;7845;53.698;10.078;2022-09-23T13:42:18;4.37;;;1.43;;
15486;SDS011;7845;53.698;10.078;2022-09-23T13:44:54;4.70;;;1.43;;
15486;SDS011;7845;53.698;10.078;2022-09-23T13:47:26;3.80;;;1.00;;
15486;SDS011;7845;53.698;10.078;2022-09-23T13:49:53;3.47;;;1.00;;
15486;SDS011;7845;53.698;10.078;2022-09-23T13:52:26;3.40;;;1.10;;
15486;SDS011;7845;53.698;10.078;2022-09-23T13:54:57;3.20;;;1.20;;
15486;SDS011;7845;53.698;10.078;2022-09-23T14:00:00;6.90;;;1.37;;
15486;SDS011;7845;53.698;10.078;2022-09-23T14:02:43;3.20;;;0.93;;
15486;SDS011;7845;53.698;10.078;2022-09-23T14:05:11;4.73;;;1.30;;
15486;SDS011;7845;53.698;10.078;2022-09-23T14:07:38;3.50;;;1.10;;
15486;SDS011;7845;53.698;10.078;2022-09-23T14:10:04;3.70;;;1.30;;
15486;SDS011;7845;53.698;10.078;2022-09-23T14:12:30;3.30;;;1.00;;
15486;SDS011;7845;53.698;10.078;2022-09-23T14:15:02;5.63;;;1.40;;
15486;SDS011;7845;53.698;10.078;2022-09-23T14:17:28;4.33;;;1.50;;
15486;SDS011;7845;53.698;10.078;2022-09-23T14:19:54;3.83;;;1.17;;
15486;SDS011;7845;53.698;10.078;2022-09-23T14:22:23;3.57;;;1.30;;
15486;SDS011;7845;53.698;10.078;2022-09-23T14:24:50;3.63;;;1.50;;
15486;SDS011;7845;53.698;10.078;2022-09-23T14:27:21;3.57;;;1.13;;
15486;SDS011;7845;53.698;10.078;2022-09-23T14:29:52;3.77;;;1.27;;
15486;SDS011;7845;53.698;10.078;2022-09-23T14:32:20;3.80;;;1.27;;
15486;SDS011;7845;53.698;10.078;2022-09-23T14:34:50;3.50;;;1.50;;
15486;SDS011;7845;53.698;10.078;2022-09-23T14:40:21;4.90;;;1.50;;
15486;SDS011;7845;53.698;10.078;2022-09-23T14:43:35;4.47;;;1.57;;
15486;SDS011;7845;53.698;10.078;2022-09-23T14:45:52;3.17;;;0.93;;
15486;SDS011;7845;53.698;10.078;2022-09-23T14:48:28;3.80;;;1.43;;
15486;SDS011;7845;53.698;10.078;2022-09-23T14:51:00;3.40;;;1.20;;
15486;SDS011;7845;53.698;10.078;2022-09-23T14:56:08;3.90;;;1.30;;
15486;SDS011;7845;53.698;10.078;2022-09-23T15:01:22;3.80;;;1.33;;
15486;SDS011;7845;53.698;10.078;2022-09-23T15:03:48;4.43;;;1.60;;
15486;SDS011;7845;53.698;10.078;2022-09-23T15:06:13;3.93;;;1.40;;
15486;SDS011;7845;53.698;10.078;2022-09-23T15:08:41;3.13;;;1.10;;
15486;SDS011;7845;53.698;10.078;2022-09-23T15:11:10;4.13;;;1.30;;
15486;SDS011;7845;53.698;10.078;2022-09-23T15:13:37;3.60;;;1.50;;
15486;SDS011;7845;53.698;10.078;2022-09-23T15:16:05;4.17;;;1.57;;
15486;SDS011;7845;53.698;10.078;2022-09-23T15:18:35;4.80;;;1.20;;
15486;SDS011;7845;53.698;10.078;2022-09-23T15:23:32;4.17;;;1.40;;
15486;SDS011;7845;53.698;10.078;2022-09-23T15:26:18;4.30;;;1.40;;
15486;SDS011;7845;53.698;10.078;2022-09-23T15:28:49;3.80;;;1.40;;
15486;SDS011;7845;53.698;10.078;2022-09-23T15:31:18;3.43;;;1.13;;
15486;SDS011;7845;53.698;10.078;2022-09-23T15:33:45;4.00;;;1.57;;
15486;SDS011;7845;53.698;10.078;2022-09-23T15:36:19;4.37;;;1.40;;
15486;SDS011;7845;53.698;10.078;2022-09-23T15:38:45;4.33;;;1.30;;
15486;SDS011;7845;53.698;10.078;2022-09-23T15:41:12;3.73;;;1.40;;
15486;SDS011;7845;53.698;10.078;2022-09-23T15:43:38;4.10;;;1.30;;
15486;SDS011;7845;53.698;10.078;2022-09-23T15:46:07;3.80;;;1.30;;
15486;SDS011;7845;53.698;10.078;2022-09-23T15:49:04;4.03;;;1.90;;
15486;SDS011;7845;53.698;10.078;2022-09-23T15:51:33;6.27;;;1.77;;
15486;SDS011;7845;53.698;10.078;2022-09-23T15:54:12;4.43;;;1.43;;
15486;SDS011;7845;53.698;10.078;2022-09-23T15:56:38;3.80;;;1.70;;
15486;SDS011;7845;53.698;10.078;2022-09-23T15:59:03;4.07;;;1.47;;
15486;SDS011;7845;53.698;10.078;2022-09-23T16:01:29;4.40;;;1.87;;
15486;SDS011;7845;53.698;10.078;2022-09-23T16:03:57;4.40;;;1.80;;
15486;SDS011;7845;53.698;10.078;2022-09-23T16:06:25;3.90;;;1.83;;
15486;SDS011;7845;53.698;10.078;2022-09-23T16:08:51;4.57;;;1.67;;
15486;SDS011;7845;53.698;10.078;2022-09-23T16:11:17;5.10;;;2.00;;
15486;SDS011;7845;53.698;10.078;2022-09-23T16:13:45;5.60;;;2.10;;
15486;SDS011;7845;53.698;10.078;2022-09-23T16:16:11;5.00;;;1.97;;
15486;SDS011;7845;53.698;10.078;2022-09-23T16:18:37;4.70;;;1.83;;
15486;SDS011;7845;53.698;10.078;2022-09-23T16:21:03;4.63;;;1.80;;
15486;SDS011;7845;53.698;10.078;2022-09-23T16:23:32;4.37;;;2.00;;
15486;SDS011;7845;53.698;10.078;2022-09-23T16:28:51;6.20;;;1.90;;
15486;SDS011;7845;53.698;10.078;2022-09-23T16:31:18;4.40;;;1.70;;
15486;SDS011;7845;53.698;10.078;2022-09-23T16:33:45;5.73;;;2.40;;
15486;SDS011;7845;53.698;10.078;2022-09-23T16:36:13;4.70;;;2.00;;
15486;SDS011;7845;53.698;10.078;2022-09-23T16:38:45;4.37;;;2.23;;
15486;SDS011;7845;53.698;10.078;2022-09-23T16:41:12;5.43;;;1.67;;
15486;SDS011;7845;53.698;10.078;2022-09-23T16:43:38;3.73;;;1.57;;
15486;SDS011;7845;53.698;10.078;2022-09-23T16:46:10;4.83;;;1.67;;
15486;SDS011;7845;53.698;10.078;2022-09-23T16:48:37;6.60;;;2.40;;
15486;SDS011;7845;53.698;10.078;2022-09-23T16:51:05;6.80;;;2.00;;
15486;SDS011;7845;53.698;10.078;2022-09-23T16:53:31;10.00;;;2.33;;
15486;SDS011;7845;53.698;10.078;2022-09-23T16:56:05;4.30;;;2.10;;
15486;SDS011;7845;53.698;10.078;2022-09-23T16:58:37;6.93;;;2.70;;
15486;SDS011;7845;53.698;10.078;2022-09-23T17:01:04;3.90;;;1.70;;
15486;SDS011;7845;53.698;10.078;2022-09-23T17:03:48;5.20;;;2.00;;
15486;SDS011;7845;53.698;10.078;2022-09-23T17:06:14;4.10;;;2.10;;
15486;SDS011;7845;53.698;10.078;2022-09-23T17:08:43;5.10;;;2.03;;
15486;SDS011;7845;53.698;10.078;2022-09-23T17:11:12;4.50;;;2.00;;
15486;SDS011;7845;53.698;10.078;2022-09-23T17:13:39;5.47;;;1.90;;
15486;SDS011;7845;53.698;10.078;2022-09-23T17:16:06;4.40;;;1.90;;
15486;SDS011;7845;53.698;10.078;2022-09-23T17:18:32;4.43;;;2.23;;
15486;SDS011;7845;53.698;10.078;2022-09-23T17:20:58;5.37;;;2.37;;
15486;SDS011;7845;53.698;10.078;2022-09-23T17:23:28;7.83;;;2.30;;